Ashotsk, Armenia

2:17 PM AMT on September 05, 2015 (GMT +0400)
Gyumri Shirak Airport | | Change Station
CLOSE
Current Station
Airport
Location: Gyumri Shirak Airport,
Elevation: 5000 ft
Nearby Weather Stations

Elev 5000 ft 40.75 °N, 43.86 °E | Updated 17 minutes ago

Scattered Clouds
Scattered Clouds
84 °F
Feels Like 84 °F
N
2
Wind Variable Wind from Variable

Today
High -- | Low -- °F
--% Chance of Precip.
Yesterday
High -- | Low -- °F
Precip. -- in
6:34 AM 7:31 PM
Waning Gibbous, 50% visible
Pressure 30.15 in
Visibility 6.2 miles
Clouds Few 5000 ft
Scattered Clouds 10000 ft
Dew Point 41 °F
Humidity 22%
Rainfall 0.00 in
Snow Depth Not available.
UV 7 out of 12
Pollen Not available.
Air Quality Not available.
Flu Activity Not available.
METAR UDSG 051000Z VRB01MPS 9999 FEW050 SCT100 29/05 Q1021 R02/CLRD70 NOSIG
Pressure 30.15 in
Visibility 6.2 miles
Clouds Few 5000 ft
Scattered Clouds 10000 ft
Dew Point 41 °F
Humidity 22%
Rainfall 0.00 in
Snow Depth Not available.
UV 7 out of 12
Pollen Not available.
Air Quality Not available.
Flu Activity Not available.
METAR UDSG 051000Z VRB01MPS 9999 FEW050 SCT100 29/05 Q1021 R02/CLRD70 NOSIG

10-Day Weather Forecast

×

Almanac

Astronomy

Sep. 05, 2015 Rise Set
Actual Time
Civil Twilight
Nautical Twilight
Astronomical Twilight
Moon
Length of Visible Light
Length of Day
Tomorrow will be .
, % of the Moon is Illuminated

Today's Extremes

Country Highs Country Lows

Community

WunderPhotos

Upload Photos

1,852,440 photos uploaded!

WunderBlogs® & News

Nearby

Air Quality

  Air Quality AQ Index Pollutant
Not available.

Snow Depth

Station Depth Elevation

Earthquake Activity

City Distance Mag. Time & Date
Minimum magnitude displayed is 2.5.

Coastal Water Temperatures

Place Temperature

Stations

Nearby Weather Stations

Station Location Temp. Windchill Dew Point Humidity Wind Precip. Elev Updated Type